createdAt,value
2022-10-30T00:00:16.640Z,12.50
2022-10-30T00:05:20.885Z,12.50
2022-10-30T00:10:24.222Z,12.50
2022-10-30T00:15:26.527Z,12.60
2022-10-30T00:20:28.873Z,12.50
2022-10-30T00:25:31.281Z,12.50
2022-10-30T00:30:34.749Z,12.50
2022-10-30T00:35:37.145Z,12.40
2022-10-30T00:40:39.468Z,12.40
2022-10-30T00:45:41.805Z,12.40
2022-10-30T00:50:44.155Z,12.30
2022-10-30T00:55:52.420Z,12.30
2022-10-30T01:00:58.510Z,12.30
2022-10-30T01:06:04.423Z,12.40
2022-10-30T01:11:09.281Z,12.20
2022-10-30T01:16:49.289Z,12.30
2022-10-30T01:22:29.740Z,12.30
2022-10-30T01:27:39.200Z,12.20
2022-10-30T01:33:05.227Z,12.30
2022-10-30T01:38:15.927Z,12.30
2022-10-30T01:43:19.554Z,12.30
2022-10-30T01:48:45.650Z,12.50
2022-10-30T01:54:03.432Z,12.30
2022-10-30T01:59:18.452Z,12.20
2022-10-30T02:04:21.260Z,12.20
2022-10-30T02:09:26.053Z,12.10
2022-10-30T02:14:33.847Z,12.10
2022-10-30T02:19:39.360Z,12.10
2022-10-30T02:24:41.646Z,12.20
2022-10-30T02:29:44.271Z,12.00
2022-10-30T02:34:46.729Z,12.00
2022-10-30T02:39:50.504Z,11.80
2022-10-30T02:44:52.816Z,11.70
2022-10-30T02:49:55.505Z,11.60
2022-10-30T02:54:57.808Z,11.70
2022-10-30T03:00:00.402Z,11.50
2022-10-30T03:05:03.530Z,11.40
2022-10-30T03:10:07.407Z,11.50
2022-10-30T03:15:11.375Z,11.40
2022-10-30T03:20:13.702Z,11.20
2022-10-30T03:25:16.082Z,11.40
2022-10-30T03:30:19.311Z,11.30
2022-10-30T03:35:23.213Z,11.20
2022-10-30T03:40:25.536Z,11.10
2022-10-30T03:45:27.859Z,11.10
2022-10-30T03:50:30.367Z,11.10
2022-10-30T03:55:33.336Z,11.10
2022-10-30T04:00:36.584Z,11.20
2022-10-30T04:05:39.398Z,11.20
2022-10-30T04:10:46.512Z,11.10
2022-10-30T04:15:57.228Z,11.00
2022-10-30T04:21:00.851Z,11.00
2022-10-30T04:26:03.574Z,11.00
2022-10-30T04:31:06.625Z,11.00
2022-10-30T04:36:09.882Z,11.00
2022-10-30T04:41:12.210Z,11.00
2022-10-30T04:46:25.643Z,10.90
2022-10-30T04:51:31.386Z,11.20
2022-10-30T04:56:33.797Z,11.30
2022-10-30T05:01:36.814Z,11.20
2022-10-30T05:06:40.167Z,11.30
2022-10-30T05:11:43.279Z,11.20
2022-10-30T05:16:45.736Z,11.10
2022-10-30T05:21:48.044Z,11.10
2022-10-30T05:26:50.849Z,10.90
2022-10-30T05:31:53.274Z,10.90
2022-10-30T05:37:13.243Z,10.90
2022-10-30T05:42:16.869Z,10.70
2022-10-30T05:47:21.445Z,10.70
2022-10-30T05:52:29.369Z,10.60
2022-10-30T05:57:33.694Z,10.50
2022-10-30T06:02:36.887Z,10.40
2022-10-30T06:07:39.327Z,10.40
2022-10-30T06:12:42.728Z,10.50
2022-10-30T06:18:01.973Z,10.40
2022-10-30T06:23:16.267Z,10.50
2022-10-30T06:28:30.048Z,10.60
2022-10-30T06:33:32.957Z,10.70
2022-10-30T06:38:35.994Z,10.70
2022-10-30T06:43:38.682Z,10.80
2022-10-30T06:48:50.406Z,11.00
2022-10-30T06:53:53.788Z,11.20
2022-10-30T06:59:14.535Z,11.20
2022-10-30T07:04:29.703Z,11.40
2022-10-30T07:09:35.243Z,11.50
2022-10-30T07:14:38.166Z,11.70
2022-10-30T07:19:52.701Z,11.90
2022-10-30T07:24:55.193Z,12.30
2022-10-30T07:30:17.310Z,12.40
2022-10-30T07:35:54.918Z,12.70
2022-10-30T07:41:20.641Z,13.00
2022-10-30T07:46:26.135Z,13.40
2022-10-30T07:51:46.739Z,13.70
2022-10-30T07:56:50.640Z,13.80
2022-10-30T08:02:11.718Z,14.00
2022-10-30T08:07:48.414Z,14.30
2022-10-30T08:12:50.802Z,14.60
2022-10-30T08:17:53.646Z,14.80
2022-10-30T08:22:58.076Z,15.10
2022-10-30T08:28:06.734Z,15.40
2022-10-30T08:33:20.370Z,15.50
2022-10-30T08:38:31.906Z,15.40
2022-10-30T08:43:45.542Z,15.30
2022-10-30T08:48:48.103Z,15.40
2022-10-30T08:53:50.937Z,15.80
2022-10-30T08:58:56.011Z,16.00
2022-10-30T09:03:58.545Z,15.80
2022-10-30T09:09:19.333Z,15.90
2022-10-30T09:14:25.916Z,15.90
2022-10-30T09:19:29.157Z,15.90
2022-10-30T09:24:33.988Z,16.10
2022-10-30T09:29:54.861Z,16.30
2022-10-30T09:34:59.867Z,16.60
2022-10-30T09:40:08.493Z,16.70
2022-10-30T09:45:43.028Z,16.80
2022-10-30T09:51:12.920Z,17.00
2022-10-30T09:56:23.201Z,17.00
2022-10-30T10:01:44.181Z,16.90
2022-10-30T10:06:50.895Z,17.10
2022-10-30T10:12:34.285Z,16.90
2022-10-30T10:17:42.089Z,17.00
2022-10-30T10:22:50.232Z,17.20
2022-10-30T10:28:11.067Z,17.60
2022-10-30T10:33:37.369Z,17.60
2022-10-30T10:38:45.883Z,17.80
2022-10-30T10:43:48.199Z,18.10
2022-10-30T10:48:50.519Z,18.20
2022-10-30T10:54:14.304Z,18.20
2022-10-30T10:59:33.151Z,18.60
2022-10-30T11:04:50.999Z,18.70
2022-10-30T11:09:55.201Z,18.80
2022-10-30T11:15:01.435Z,18.70
2022-10-30T11:20:23.514Z,18.70
2022-10-30T11:25:33.398Z,18.60
2022-10-30T11:30:35.785Z,18.60
2022-10-30T11:35:43.168Z,18.60
2022-10-30T11:40:52.710Z,18.60
2022-10-30T11:45:55.427Z,18.50
2022-10-30T11:51:02.678Z,18.40
2022-10-30T11:56:15.883Z,18.30
2022-10-30T12:01:30.620Z,18.20
2022-10-30T12:06:33.017Z,18.20
2022-10-30T12:11:36.408Z,18.20
2022-10-30T12:16:46.506Z,18.20
2022-10-30T12:21:54.027Z,18.20
2022-10-30T12:27:00.981Z,18.20
2022-10-30T12:32:09.724Z,18.30
2022-10-30T12:37:24.189Z,18.20
2022-10-30T12:42:26.839Z,18.30
2022-10-30T12:47:56.666Z,18.40
2022-10-30T12:53:09.652Z,18.40
2022-10-30T12:58:18.081Z,18.30
2022-10-30T13:03:41.432Z,18.50
2022-10-30T13:09:25.869Z,18.50
2022-10-30T13:14:42.252Z,18.50
2022-10-30T13:19:47.278Z,18.50
2022-10-30T13:25:14.411Z,18.40
2022-10-30T13:30:21.901Z,18.40
2022-10-30T13:35:36.340Z,18.30
2022-10-30T13:40:44.009Z,18.30
2022-10-30T13:45:58.298Z,18.20
2022-10-30T13:51:54.606Z,18.20
2022-10-30T13:57:04.593Z,18.10
2022-10-30T14:02:15.609Z,18.20
2022-10-30T14:07:50.069Z,18.10
2022-10-30T14:12:58.364Z,18.00
2022-10-30T14:18:24.658Z,18.00
2022-10-30T14:23:35.502Z,17.90
2022-10-30T14:28:49.490Z,17.90
2022-10-30T14:33:58.133Z,17.80
2022-10-30T14:39:10.460Z,17.70
2022-10-30T14:44:43.223Z,17.70
2022-10-30T14:50:14.545Z,17.60
2022-10-30T14:55:32.660Z,17.50
2022-10-30T15:00:42.016Z,17.40
2022-10-30T15:06:01.397Z,17.20
2022-10-30T15:11:06.545Z,17.10
2022-10-30T15:16:13.198Z,17.00
2022-10-30T15:21:25.679Z,16.80
2022-10-30T15:26:39.471Z,16.60
2022-10-30T15:31:41.848Z,16.40
2022-10-30T15:36:45.811Z,16.10
2022-10-30T15:41:58.120Z,15.90
2022-10-30T15:47:02.814Z,15.70
2022-10-30T15:52:15.001Z,15.50
2022-10-30T16:02:59.011Z,15.20
2022-10-30T16:08:03.156Z,15.00
2022-10-30T16:13:05.602Z,14.90
2022-10-30T16:18:25.428Z,14.70
2022-10-30T16:23:28.051Z,14.60
2022-10-30T16:28:36.274Z,14.50
2022-10-30T16:33:39.093Z,14.40
2022-10-30T16:38:41.996Z,14.40
2022-10-30T16:44:12.515Z,14.30
2022-10-30T16:49:21.373Z,14.20
2022-10-30T16:54:27.266Z,14.10
2022-10-30T16:59:33.919Z,14.00
2022-10-30T17:04:36.405Z,13.90
2022-10-30T17:09:38.890Z,13.80
2022-10-30T17:14:53.098Z,13.80
2022-10-30T17:19:57.772Z,13.70
2022-10-30T17:25:00.512Z,13.60
2022-10-30T17:30:04.151Z,13.60
2022-10-30T17:35:19.161Z,13.60
2022-10-30T17:40:22.030Z,13.50
2022-10-30T17:45:24.436Z,13.40
2022-10-30T17:50:26.785Z,13.40
2022-10-30T17:55:33.556Z,13.30
2022-10-30T18:00:35.951Z,13.20
2022-10-30T18:05:40.857Z,13.20
2022-10-30T18:10:43.297Z,13.00
2022-10-30T18:15:54.364Z,12.90
2022-10-30T18:20:56.784Z,13.00
2022-10-30T18:25:59.237Z,12.80
2022-10-30T18:31:01.866Z,12.80
2022-10-30T18:36:06.696Z,12.80
2022-10-30T18:41:27.726Z,12.50
2022-10-30T18:46:31.547Z,12.30
2022-10-30T18:51:33.891Z,12.20
2022-10-30T18:56:36.226Z,12.10
2022-10-30T19:01:39.080Z,12.00
2022-10-30T19:06:41.751Z,12.00
2022-10-30T19:11:44.663Z,11.90
2022-10-30T19:16:47.217Z,11.80
2022-10-30T19:21:50.585Z,11.70
2022-10-30T19:26:52.983Z,11.60
2022-10-30T19:31:55.407Z,11.60
2022-10-30T19:36:57.848Z,11.60
2022-10-30T19:42:00.555Z,11.50
2022-10-30T19:47:02.999Z,11.40
2022-10-30T19:52:05.574Z,11.30
2022-10-30T19:57:13.353Z,11.20
2022-10-30T20:02:15.906Z,11.10
2022-10-30T20:07:18.437Z,11.20
2022-10-30T20:12:20.856Z,11.30
2022-10-30T20:17:23.251Z,11.00
2022-10-30T20:22:28.346Z,11.00
2022-10-30T20:27:30.932Z,11.10
2022-10-30T20:32:33.541Z,11.20
2022-10-30T20:37:35.921Z,10.90
2022-10-30T20:42:39.012Z,10.90
2022-10-30T20:47:41.612Z,11.00
2022-10-30T20:52:44.174Z,11.00
2022-10-30T20:57:49.198Z,11.00
2022-10-30T21:02:54.188Z,11.00
2022-10-30T21:07:58.085Z,11.00
2022-10-30T21:13:03.620Z,11.00
2022-10-30T21:18:11.578Z,11.00
2022-10-30T21:23:13.988Z,11.00
2022-10-30T21:28:16.409Z,10.90
2022-10-30T21:33:18.787Z,10.90
2022-10-30T21:38:21.243Z,10.80
2022-10-30T21:43:23.925Z,10.70
2022-10-30T21:48:26.510Z,10.70
2022-10-30T21:53:30.813Z,10.60
2022-10-30T21:58:33.237Z,10.50
2022-10-30T22:03:35.623Z,10.30
2022-10-30T22:08:38.782Z,10.20
2022-10-30T22:13:41.574Z,10.20
2022-10-30T22:18:44.034Z,10.10
2022-10-30T22:23:46.494Z,10.10
2022-10-30T22:28:56.050Z,10.10
2022-10-30T22:34:01.697Z,10.20
2022-10-30T22:39:12.356Z,10.10
2022-10-30T22:44:17.828Z,10.20
2022-10-30T22:49:20.320Z,10.00
2022-10-30T22:54:22.801Z,10.00
2022-10-30T22:59:25.263Z,9.90
2022-10-30T23:04:27.672Z,10.00
2022-10-30T23:09:30.001Z,9.90
2022-10-30T23:14:32.365Z,9.90
2022-10-30T23:19:34.854Z,9.80
2022-10-30T23:24:37.206Z,9.70
2022-10-30T23:29:39.698Z,9.80
2022-10-30T23:34:42.102Z,9.70
2022-10-30T23:39:44.542Z,9.70
2022-10-30T23:44:47.201Z,9.70
2022-10-30T23:49:49.659Z,9.70
2022-10-30T23:54:52.371Z,9.70
2022-10-30T23:59:54.771Z,9.70
